createdAt,value
2016-06-17T00:00:42.026Z,996.54
2016-06-17T00:01:42.045Z,996.56
2016-06-17T00:02:42.033Z,996.58
2016-06-17T00:03:42.051Z,996.54
2016-06-17T00:04:42.055Z,996.56
2016-06-17T00:05:42.059Z,996.56
2016-06-17T00:06:42.062Z,996.55
2016-06-17T00:07:42.065Z,996.5
2016-06-17T00:08:42.085Z,996.54
2016-06-17T00:09:42.088Z,996.5
2016-06-17T00:10:42.092Z,996.54
2016-06-17T00:11:42.095Z,996.59
2016-06-17T00:12:42.114Z,996.58
2016-06-17T00:13:42.117Z,996.57
2016-06-17T00:14:42.120Z,996.61
2016-06-17T00:15:42.124Z,996.61
2016-06-17T00:16:42.128Z,996.64
2016-06-17T00:17:42.147Z,996.67
2016-06-17T00:18:42.150Z,996.65
2016-06-17T00:19:42.170Z,996.7
2016-06-17T00:20:42.157Z,996.71
2016-06-17T00:21:42.177Z,996.68
2016-06-17T00:22:42.180Z,996.67
2016-06-17T00:23:42.184Z,996.67
2016-06-17T00:24:42.202Z,996.68
2016-06-17T00:25:42.191Z,996.63
2016-06-17T00:26:42.209Z,996.62
2016-06-17T00:27:42.213Z,996.59
2016-06-17T00:28:42.216Z,996.63
2016-06-17T00:29:42.219Z,996.57
2016-06-17T00:30:42.239Z,996.56
2016-06-17T00:31:42.242Z,996.53
2016-06-17T00:32:42.262Z,996.58
2016-06-17T00:33:42.249Z,996.56
2016-06-17T00:34:42.269Z,996.56
2016-06-17T00:35:42.272Z,996.57
2016-06-17T00:36:42.276Z,996.57
2016-06-17T00:37:42.279Z,996.57
2016-06-17T00:38:42.283Z,996.58
2016-06-17T00:39:42.286Z,996.57
2016-06-17T00:40:42.304Z,996.61
2016-06-17T00:41:42.308Z,996.58
2016-06-17T00:42:42.312Z,996.59
2016-06-17T00:43:42.315Z,996.53
2016-06-17T00:44:42.334Z,996.55
2016-06-17T00:45:42.337Z,996.51
2016-06-17T00:46:42.341Z,996.52
2016-06-17T00:47:42.345Z,996.54
2016-06-17T00:48:42.348Z,996.5
2016-06-17T00:49:42.366Z,996.49
2016-06-17T00:50:42.369Z,996.49
2016-06-17T00:51:42.372Z,996.46
2016-06-17T00:52:42.375Z,996.46
2016-06-17T00:53:42.394Z,996.45
2016-06-17T00:54:42.397Z,996.44
2016-06-17T00:55:42.400Z,996.42
2016-06-17T00:56:42.403Z,996.42
2016-06-17T00:57:42.407Z,996.39
2016-06-17T00:58:42.426Z,996.32
2016-06-17T00:59:42.430Z,996.31
2016-06-17T01:00:42.433Z,996.3
2016-06-17T01:01:42.436Z,996.29
2016-06-17T01:02:42.440Z,996.3
2016-06-17T01:03:42.458Z,996.27
2016-06-17T01:04:42.461Z,996.3
2016-06-17T01:05:42.465Z,996.27
2016-06-17T01:06:42.485Z,996.22
2016-06-17T01:07:42.488Z,996.22
2016-06-17T01:08:42.492Z,996.18
2016-06-17T01:09:42.495Z,996.16
2016-06-17T01:10:42.498Z,996.15
2016-06-17T01:11:42.502Z,996.11
2016-06-17T01:12:42.521Z,996.13
2016-06-17T01:13:42.524Z,996.11
2016-06-17T01:14:42.528Z,996.09
2016-06-17T01:15:42.532Z,996.08
2016-06-17T01:16:42.581Z,996.12
2016-06-17T01:17:42.553Z,996.13
2016-06-17T01:18:42.557Z,996.12
2016-06-17T01:19:42.560Z,996.11
2016-06-17T01:20:42.580Z,996.12
2016-06-17T01:21:42.584Z,996.07
2016-06-17T01:22:42.586Z,996.04
2016-06-17T01:23:42.591Z,996.04
2016-06-17T01:24:42.593Z,996.06
2016-06-17T01:25:42.612Z,996.05
2016-06-17T01:26:42.616Z,996.08
2016-06-17T01:27:42.619Z,996.07
2016-06-17T01:28:42.622Z,996.07
2016-06-17T01:29:42.626Z,996.02
2016-06-17T01:30:42.645Z,996.05
2016-06-17T01:31:42.649Z,996.02
2016-06-17T01:32:42.653Z,995.98
2016-06-17T01:33:42.655Z,995.95
2016-06-17T01:34:42.675Z,995.94
2016-06-17T01:35:42.679Z,995.95
2016-06-17T01:36:42.683Z,995.93
2016-06-17T01:37:42.686Z,995.9
2016-06-17T01:38:42.690Z,995.86
2016-06-17T01:39:42.707Z,995.89
2016-06-17T01:40:42.711Z,995.89
2016-06-17T01:41:42.715Z,995.87
2016-06-17T01:42:42.734Z,995.88
2016-06-17T01:43:42.722Z,995.88
2016-06-17T01:44:42.741Z,995.86
2016-06-17T01:45:42.744Z,995.87
2016-06-17T01:46:42.764Z,995.87
2016-06-17T01:47:42.752Z,995.86
2016-06-17T01:48:42.770Z,995.84
2016-06-17T01:49:42.774Z,995.83
2016-06-17T01:50:42.778Z,995.86
2016-06-17T01:51:42.781Z,995.87
2016-06-17T01:52:42.800Z,995.82
2016-06-17T01:53:42.788Z,995.88
2016-06-17T01:54:42.806Z,995.9
2016-06-17T01:55:42.826Z,995.93
2016-06-17T01:56:42.816Z,995.94
2016-06-17T01:57:42.837Z,995.95
2016-06-17T01:58:42.841Z,995.96
2016-06-17T01:59:42.846Z,995.92
2016-06-17T02:00:42.851Z,995.94
2016-06-17T02:01:42.870Z,995.92
2016-06-17T02:02:42.874Z,995.92
2016-06-17T02:03:42.878Z,995.9
2016-06-17T02:04:42.881Z,995.83
2016-06-17T02:05:42.885Z,995.81
2016-06-17T02:06:42.905Z,995.81
2016-06-17T02:07:42.909Z,995.8
2016-06-17T02:08:42.913Z,995.77
2016-06-17T02:09:42.916Z,995.78
2016-06-17T02:10:42.920Z,995.79
2016-06-17T02:11:42.940Z,995.75
2016-06-17T02:12:42.944Z,995.78
2016-06-17T02:13:42.946Z,995.8
2016-06-17T02:14:42.950Z,995.79
2016-06-17T02:15:42.953Z,995.81
2016-06-17T02:16:42.972Z,995.82
2016-06-17T02:17:42.976Z,995.83
2016-06-17T02:18:42.979Z,995.82
2016-06-17T02:19:42.982Z,995.87
2016-06-17T02:20:42.986Z,995.85
2016-06-17T02:21:43.006Z,995.88
2016-06-17T02:22:43.008Z,995.83
2016-06-17T02:23:43.012Z,995.84
2016-06-17T02:24:43.016Z,995.84
2016-06-17T02:25:43.035Z,995.79
2016-06-17T02:26:43.039Z,995.76
2016-06-17T02:27:43.043Z,995.79
2016-06-17T02:28:43.045Z,995.78
2016-06-17T02:29:43.049Z,995.79
2016-06-17T02:30:43.068Z,995.79
2016-06-17T02:31:43.071Z,995.82
2016-06-17T02:32:43.075Z,995.82
2016-06-17T02:33:43.077Z,995.81
2016-06-17T02:34:43.097Z,995.79
2016-06-17T02:35:43.101Z,995.78
2016-06-17T02:36:43.105Z,995.76
2016-06-17T02:37:43.107Z,995.75
2016-06-17T02:38:43.126Z,995.7
2016-06-17T02:39:43.130Z,995.69
2016-06-17T02:40:43.133Z,995.71
2016-06-17T02:41:43.137Z,995.67
2016-06-17T02:42:43.156Z,995.7
2016-06-17T02:43:43.159Z,995.69
2016-06-17T02:44:43.163Z,995.7
2016-06-17T02:45:43.167Z,995.69
2016-06-17T02:46:43.170Z,995.69
2016-06-17T02:47:43.173Z,995.72
2016-06-17T02:48:43.193Z,995.74
2016-06-17T02:49:43.196Z,995.74
2016-06-17T02:50:43.200Z,995.75
2016-06-17T02:51:43.203Z,995.81
2016-06-17T02:52:43.221Z,995.8
2016-06-17T02:53:43.225Z,995.83
2016-06-17T02:54:43.229Z,995.86
2016-06-17T02:55:43.232Z,995.83
2016-06-17T02:56:43.235Z,995.81
2016-06-17T02:57:43.255Z,995.85
2016-06-17T02:58:43.258Z,995.84
2016-06-17T02:59:43.262Z,995.89
2016-06-17T03:00:43.265Z,995.89
2016-06-17T03:01:43.269Z,995.94
2016-06-17T03:02:43.288Z,995.93
2016-06-17T03:03:43.292Z,995.92
2016-06-17T03:04:43.295Z,995.97
2016-06-17T03:05:43.299Z,995.95
2016-06-17T03:06:43.458Z,995.97
2016-06-17T03:07:43.320Z,995.95
2016-06-17T03:08:43.324Z,995.95
2016-06-17T03:09:43.327Z,995.97
2016-06-17T03:10:43.331Z,995.94
2016-06-17T03:11:43.350Z,995.91
2016-06-17T03:12:43.354Z,995.94
2016-06-17T03:13:43.357Z,995.91
2016-06-17T03:14:43.361Z,995.91
2016-06-17T03:15:43.364Z,995.95
2016-06-17T03:16:43.368Z,995.92
2016-06-17T03:17:43.386Z,995.97
2016-06-17T03:18:43.389Z,995.95
2016-06-17T03:19:43.393Z,995.97
2016-06-17T03:20:43.412Z,995.95
2016-06-17T03:21:43.416Z,995.98
2016-06-17T03:22:43.420Z,995.97
2016-06-17T03:23:43.423Z,995.98
2016-06-17T03:24:43.426Z,996
2016-06-17T03:25:43.430Z,996
2016-06-17T03:26:43.449Z,995.98
2016-06-17T03:27:43.453Z,996
2016-06-17T03:28:43.456Z,995.97
2016-06-17T03:29:43.475Z,995.98
2016-06-17T03:30:43.478Z,995.93
2016-06-17T03:31:43.481Z,995.9
2016-06-17T03:32:43.485Z,995.9
2016-06-17T03:33:43.488Z,995.94
2016-06-17T03:34:43.491Z,995.97
2016-06-17T03:35:43.512Z,995.93
2016-06-17T03:36:43.514Z,995.95
2016-06-17T03:37:43.518Z,995.98
2016-06-17T03:38:43.522Z,995.97
2016-06-17T03:39:43.542Z,995.96
2016-06-17T03:40:43.544Z,995.94
2016-06-17T03:41:43.548Z,995.95
2016-06-17T03:42:43.551Z,995.93
2016-06-17T03:43:43.570Z,995.89
2016-06-17T03:44:43.574Z,995.9
2016-06-17T03:45:43.577Z,995.86
2016-06-17T03:46:43.581Z,995.84
2016-06-17T03:47:43.600Z,995.84
2016-06-17T03:48:43.604Z,995.81
2016-06-17T03:49:43.606Z,995.83
2016-06-17T03:50:43.625Z,995.79
2016-06-17T03:51:43.614Z,995.83
2016-06-17T03:52:43.617Z,995.84
2016-06-17T03:53:43.636Z,995.87
2016-06-17T03:54:43.639Z,995.87
2016-06-17T03:55:43.642Z,995.91
2016-06-17T03:56:43.646Z,995.87
2016-06-17T03:57:43.666Z,995.89
2016-06-17T03:58:43.669Z,995.88
2016-06-17T03:59:43.672Z,995.86
2016-06-17T04:00:43.676Z,995.82
2016-06-17T04:01:43.679Z,995.8
2016-06-17T04:02:43.683Z,995.78
2016-06-17T04:03:43.702Z,995.75
2016-06-17T04:04:43.705Z,995.73
2016-06-17T04:05:43.709Z,995.76
2016-06-17T04:06:43.713Z,995.73
2016-06-17T04:07:43.731Z,995.73
2016-06-17T04:08:43.734Z,995.7
2016-06-17T04:09:43.738Z,995.71
2016-06-17T04:10:43.741Z,995.69
2016-06-17T04:11:43.745Z,995.65
2016-06-17T04:12:43.767Z,995.67
2016-06-17T04:13:43.774Z,995.67
2016-06-17T04:14:43.781Z,995.7
2016-06-17T04:15:43.788Z,995.69
2016-06-17T04:16:43.810Z,995.7
2016-06-17T04:17:43.816Z,995.69
2016-06-17T04:18:43.820Z,995.68
2016-06-17T04:19:43.825Z,995.71
2016-06-17T04:20:43.829Z,995.68
2016-06-17T04:21:43.849Z,995.73
2016-06-17T04:22:43.854Z,995.76
2016-06-17T04:23:43.857Z,995.78
2016-06-17T04:24:43.861Z,995.82
2016-06-17T04:25:43.881Z,995.88
2016-06-17T04:26:43.884Z,995.89
2016-06-17T04:27:43.888Z,995.91
2016-06-17T04:28:43.907Z,995.91
2016-06-17T04:29:43.896Z,995.93
2016-06-17T04:30:43.915Z,995.93
2016-06-17T04:31:43.918Z,995.92
2016-06-17T04:32:43.923Z,995.93
2016-06-17T04:33:43.925Z,995.94
2016-06-17T04:34:43.945Z,995.92
2016-06-17T04:35:43.949Z,995.89
2016-06-17T04:36:43.953Z,995.93
2016-06-17T04:37:43.955Z,995.92
2016-06-17T04:38:43.959Z,995.92
2016-06-17T04:39:43.978Z,995.94
2016-06-17T04:40:43.982Z,995.9
2016-06-17T04:41:43.986Z,995.89
2016-06-17T04:42:43.988Z,995.9
2016-06-17T04:43:44.007Z,995.9
2016-06-17T04:44:44.010Z,995.93
2016-06-17T04:45:44.015Z,995.87
2016-06-17T04:46:44.018Z,995.86
2016-06-17T04:47:44.038Z,995.82
2016-06-17T04:48:44.040Z,995.87
2016-06-17T04:49:44.044Z,995.88
2016-06-17T04:50:44.047Z,995.9
2016-06-17T04:51:44.051Z,995.91
2016-06-17T04:52:44.071Z,995.92
2016-06-17T04:53:44.074Z,995.96
2016-06-17T04:54:44.077Z,995.96
2016-06-17T04:55:44.081Z,995.98
2016-06-17T04:56:44.085Z,996.01
2016-06-17T04:57:44.103Z,996.03
2016-06-17T04:58:44.107Z,996.06
2016-06-17T04:59:44.109Z,996.01
2016-06-17T05:00:44.129Z,996.05
2016-06-17T05:01:44.117Z,996.03
2016-06-17T05:02:44.136Z,996.08
2016-06-17T05:03:44.140Z,996.07
2016-06-17T05:04:44.143Z,996.1
2016-06-17T05:05:44.146Z,996.14
2016-06-17T05:06:44.150Z,996.17
2016-06-17T05:07:44.169Z,996.12
2016-06-17T05:08:44.172Z,996.15
2016-06-17T05:09:44.176Z,996.19
2016-06-17T05:10:44.178Z,996.16
2016-06-17T05:11:44.198Z,996.19
2016-06-17T05:12:44.202Z,996.25
2016-06-17T05:13:44.205Z,996.25
2016-06-17T05:14:44.209Z,996.3
2016-06-17T05:15:44.212Z,996.28
2016-06-17T05:16:44.231Z,996.34
2016-06-17T05:17:44.235Z,996.35
2016-06-17T05:18:44.238Z,996.33
2016-06-17T05:19:44.242Z,996.31
2016-06-17T05:20:44.246Z,996.33
2016-06-17T05:21:44.263Z,996.38
2016-06-17T05:22:44.267Z,996.37
2016-06-17T05:23:44.270Z,996.38
2016-06-17T05:24:44.274Z,996.39
2016-06-17T05:25:44.294Z,996.42
2016-06-17T05:26:44.297Z,996.4
2016-06-17T05:27:44.301Z,996.38
2016-06-17T05:28:44.304Z,996.39
2016-06-17T05:29:44.308Z,996.41
2016-06-17T05:30:44.327Z,996.44
2016-06-17T05:31:44.331Z,996.43
2016-06-17T05:32:44.334Z,996.39
2016-06-17T05:33:44.337Z,996.43
2016-06-17T05:34:44.356Z,996.41
2016-06-17T05:35:44.359Z,996.36
2016-06-17T05:36:44.363Z,996.37
2016-06-17T05:37:44.366Z,996.37
2016-06-17T05:38:44.370Z,996.35
2016-06-17T05:39:44.389Z,996.38
2016-06-17T05:40:44.392Z,996.34
2016-06-17T05:41:44.396Z,996.34
2016-06-17T05:42:44.399Z,996.29
2016-06-17T05:43:44.418Z,996.32
2016-06-17T05:44:44.421Z,996.29
2016-06-17T05:45:44.425Z,996.32
2016-06-17T05:46:44.428Z,996.29
2016-06-17T05:47:44.448Z,996.34
2016-06-17T05:48:44.451Z,996.36
2016-06-17T05:49:44.455Z,996.35
2016-06-17T05:50:44.458Z,996.39
2016-06-17T05:51:44.461Z,996.38
2016-06-17T05:52:44.481Z,996.43
2016-06-17T05:53:44.484Z,996.36
2016-06-17T05:54:44.488Z,996.38
2016-06-17T05:55:44.491Z,996.43
2016-06-17T05:56:44.495Z,996.44
2016-06-17T05:57:44.498Z,996.44
2016-06-17T05:58:44.516Z,996.48
2016-06-17T05:59:44.521Z,996.49
2016-06-17T06:00:44.523Z,996.49
2016-06-17T06:01:44.527Z,996.46
2016-06-17T06:02:44.547Z,996.5
2016-06-17T06:03:44.550Z,996.51
2016-06-17T06:04:44.553Z,996.48
2016-06-17T06:05:44.556Z,996.47
2016-06-17T06:06:44.576Z,996.47
2016-06-17T06:07:44.580Z,996.46
2016-06-17T06:08:44.599Z,996.47
2016-06-17T06:09:44.586Z,996.46
2016-06-17T06:10:44.605Z,996.47
2016-06-17T06:11:44.608Z,996.46
2016-06-17T06:12:44.612Z,996.46
2016-06-17T06:13:44.616Z,996.47
2016-06-17T06:14:44.635Z,996.44
2016-06-17T06:15:44.919Z,996.48
2016-06-17T06:16:44.642Z,996.46
2016-06-17T06:17:44.645Z,996.47
2016-06-17T06:18:44.680Z,996.5
2016-06-17T06:19:44.684Z,996.48
2016-06-17T06:20:44.702Z,996.48
2016-06-17T06:21:44.754Z,996.47
2016-06-17T06:22:44.787Z,996.48
2016-06-17T06:23:44.791Z,996.47
2016-06-17T06:24:44.795Z,996.44
2016-06-17T06:25:44.798Z,996.46
2016-06-17T06:26:44.708Z,996.49
2016-06-17T06:27:44.711Z,996.49
2016-06-17T06:28:44.731Z,996.54
2016-06-17T06:29:44.739Z,996.54
2016-06-17T06:30:44.748Z,996.53
2016-06-17T06:31:44.756Z,996.53
2016-06-17T06:32:44.796Z,996.52
2016-06-17T06:33:44.788Z,996.53
2016-06-17T06:34:45.153Z,996.54
2016-06-17T06:35:44.798Z,996.57
2016-06-17T06:36:44.803Z,996.54
2016-06-17T06:37:44.823Z,996.57
2016-06-17T06:38:44.829Z,996.57
2016-06-17T06:39:44.833Z,996.53
2016-06-17T06:40:44.838Z,996.6
2016-06-17T06:41:44.857Z,996.61
2016-06-17T06:42:44.862Z,996.62
2016-06-17T06:43:45.100Z,996.66
2016-06-17T06:44:44.869Z,996.64
2016-06-17T06:45:44.873Z,996.65
2016-06-17T06:46:44.891Z,996.63
2016-06-17T06:47:44.895Z,996.63
2016-06-17T06:48:44.898Z,996.67
2016-06-17T06:49:44.901Z,996.66
2016-06-17T06:50:44.921Z,996.64
2016-06-17T06:51:44.924Z,996.7
2016-06-17T06:52:44.928Z,996.66
2016-06-17T06:53:44.932Z,996.64
2016-06-17T06:54:44.950Z,996.68
2016-06-17T06:55:44.954Z,996.74
2016-06-17T06:56:44.956Z,996.72
2016-06-17T06:57:44.960Z,996.68
2016-06-17T06:58:44.964Z,996.73
2016-06-17T06:59:44.967Z,996.7
2016-06-17T07:00:44.987Z,996.69
2016-06-17T07:01:44.990Z,996.7
2016-06-17T07:02:44.993Z,996.73
2016-06-17T07:03:44.996Z,996.74
2016-06-17T07:04:45.016Z,996.77
2016-06-17T07:05:45.020Z,996.77
2016-06-17T07:06:45.024Z,996.81
2016-06-17T07:07:45.026Z,996.85
2016-06-17T07:08:45.045Z,996.85
2016-06-17T07:09:45.048Z,996.9
2016-06-17T07:10:45.052Z,996.88
2016-06-17T07:11:45.056Z,996.93
2016-06-17T07:12:45.059Z,996.92
2016-06-17T07:13:45.079Z,996.93
2016-06-17T07:14:45.082Z,996.91
2016-06-17T07:15:45.101Z,997
2016-06-17T07:16:45.089Z,996.98
2016-06-17T07:17:45.093Z,997.01
2016-06-17T07:18:45.111Z,997
2016-06-17T07:19:45.116Z,997
2016-06-17T07:20:45.118Z,996.97
2016-06-17T07:21:45.122Z,997
2016-06-17T07:22:45.141Z,997.01
2016-06-17T07:23:45.145Z,997.01
2016-06-17T07:24:45.148Z,997.07
2016-06-17T07:25:45.167Z,997.06
2016-06-17T07:26:45.170Z,997.12
2016-06-17T07:27:45.174Z,997.07
2016-06-17T07:28:45.178Z,997.06
2016-06-17T07:29:45.180Z,997.09
2016-06-17T07:30:45.263Z,997.11
2016-06-17T07:31:45.202Z,997.15
2016-06-17T07:32:45.206Z,997.19
2016-06-17T07:33:45.210Z,997.21
2016-06-17T07:34:45.230Z,997.16
2016-06-17T07:35:45.217Z,997.19
2016-06-17T07:36:45.236Z,997.17
2016-06-17T07:37:45.239Z,997.16
2016-06-17T07:38:45.243Z,997.15
2016-06-17T07:39:45.262Z,997.13
2016-06-17T07:40:45.266Z,997.11
2016-06-17T07:41:45.332Z,997.1
2016-06-17T07:42:45.272Z,997.12
2016-06-17T07:43:45.323Z,997.09
2016-06-17T07:44:45.295Z,997.11
2016-06-17T07:45:45.298Z,997.11
2016-06-17T07:46:45.302Z,997.1
2016-06-17T07:47:45.305Z,997.12
2016-06-17T07:48:45.325Z,997.11
2016-06-17T07:49:45.328Z,997.13
2016-06-17T07:50:45.331Z,997.13
2016-06-17T07:51:45.335Z,997.09
2016-06-17T07:52:45.339Z,997.1
2016-06-17T07:53:45.373Z,997.08
2016-06-17T07:54:45.392Z,997.11
2016-06-17T07:55:45.380Z,997.08
2016-06-17T07:56:45.399Z,997.08
2016-06-17T07:57:45.403Z,997.07
2016-06-17T07:58:45.421Z,997.05
2016-06-17T07:59:45.425Z,997.05
2016-06-17T08:03:04.078Z,997.06
2016-06-17T08:05:43.494Z,997.11
2016-06-17T08:06:43.497Z,997.08
2016-06-17T08:07:43.547Z,997.12
2016-06-17T08:08:43.504Z,997.15
2016-06-17T08:09:43.523Z,997.09
2016-06-17T08:10:43.527Z,997.16
2016-06-17T08:11:43.531Z,997.16
2016-06-17T08:12:43.532Z,997.15
2016-06-17T08:13:43.536Z,997.14
2016-06-17T08:14:43.555Z,997.16
2016-06-17T08:15:43.559Z,997.16
2016-06-17T08:16:43.562Z,997.14
2016-06-17T08:17:43.566Z,997.18
2016-06-17T08:18:43.570Z,997.15
2016-06-17T08:19:43.589Z,997.17
2016-06-17T08:20:43.607Z,997.22
2016-06-17T08:21:43.596Z,997.19
2016-06-17T08:22:43.599Z,997.19
2016-06-17T08:23:43.618Z,997.17
2016-06-17T08:24:43.621Z,997.18
2016-06-17T08:25:43.625Z,997.14
2016-06-17T08:26:43.644Z,997.16
2016-06-17T08:27:43.648Z,997.14
2016-06-17T08:28:43.651Z,997.11
2016-06-17T08:29:43.655Z,997.16
2016-06-17T08:30:43.658Z,997.14
2016-06-17T08:31:43.662Z,997.16
2016-06-17T08:32:43.682Z,997.18
2016-06-17T08:33:43.685Z,997.21
2016-06-17T08:34:43.689Z,997.2
2016-06-17T08:35:43.691Z,997.22
2016-06-17T08:36:43.960Z,997.23
2016-06-17T08:37:43.714Z,997.26
2016-06-17T08:38:43.733Z,997.24
2016-06-17T08:39:43.721Z,997.29
2016-06-17T08:40:43.724Z,997.29
2016-06-17T08:41:43.743Z,997.26
2016-06-17T08:42:43.747Z,997.28
2016-06-17T08:43:43.750Z,997.32
2016-06-17T08:44:24.844Z,997.58
2016-06-17T08:45:24.848Z,997.59
2016-06-17T08:46:24.866Z,997.63
2016-06-17T08:47:24.856Z,997.6
2016-06-17T08:48:24.874Z,997.56
2016-06-17T08:49:24.878Z,997.59
2016-06-17T08:50:25.116Z,997.61
2016-06-17T08:51:24.901Z,997.56
2016-06-17T08:52:24.905Z,997.59
2016-06-17T08:53:24.909Z,997.59
2016-06-17T08:54:24.911Z,997.6
2016-06-17T08:55:24.915Z,997.63
2016-06-17T08:56:24.919Z,997.6
2016-06-17T08:57:24.937Z,997.58
2016-06-17T08:58:24.942Z,997.6
2016-06-17T08:59:24.944Z,997.59
2016-06-17T09:00:24.948Z,997.57
2016-06-17T09:01:24.967Z,997.6
2016-06-17T09:02:25.018Z,997.59
2016-06-17T09:03:24.975Z,997.64
2016-06-17T09:04:24.978Z,997.63
2016-06-17T09:05:24.998Z,997.66
2016-06-17T09:06:25.001Z,997.65
2016-06-17T09:07:25.004Z,997.65
2016-06-17T09:08:25.008Z,997.71
2016-06-17T09:16:25.048Z,997.81
2016-06-17T09:17:25.068Z,997.76
2016-06-17T09:24:22.207Z,997.82
2016-06-17T09:25:22.210Z,997.8
2016-06-17T09:26:22.214Z,997.84
2016-06-17T09:27:22.233Z,997.84
2016-06-17T09:28:22.252Z,997.85
2016-06-17T09:29:22.240Z,997.88
2016-06-17T09:30:22.243Z,997.89
2016-06-17T09:31:22.246Z,997.88
2016-06-17T09:32:22.266Z,997.92
2016-06-17T09:33:22.270Z,997.92
2016-06-17T09:34:22.273Z,997.95
2016-06-17T09:35:22.277Z,997.91
2016-06-17T09:36:22.280Z,997.92
2016-06-17T09:37:22.299Z,997.92
2016-06-17T09:38:22.303Z,997.92
2016-06-17T09:39:22.307Z,997.92
2016-06-17T09:40:22.310Z,997.88
2016-06-17T09:41:22.330Z,997.94
